Kennells Beach, North Carolina
Current Conditions -  °F | °C
As of 4:02 PM on Monday 24 Nov 2014 (Local Time) from KEWN Reporting Station
Haze Haze  
Wind Chill: 73°   Ceiling: 2300
Heat Index: 73°   Visibility: 6mi
Dew Point: 69°   Wind: 10mph
Humidity: 87%   Direction: 210°SSW
Pressure: 29.87"   Gusts: NA
Location:  35.1354°N, 76.8853°W
Report Text: KEWN 242102Z 21009KT 6SM BR FEW012 BKN023 OVC050 23/21 A2987 RMK AO2 T02280206
Loading
Personal Weather Stations






























Interactive Weather Map New forecast layout! Learn more

10-Day Weather Forecast

Advertisements
Track Severe Weather on mobile